sensor_id;sensor_type;location;lat;lon;timestamp;P1;durP1;ratioP1;P2;durP2;ratioP2
23384;SDS011;11865;45.394;10.978;2023-05-07T00:01:06;18.60;;;15.43;;
23384;SDS011;11865;45.394;10.978;2023-05-07T00:03:33;20.65;;;14.20;;
23384;SDS011;11865;45.394;10.978;2023-05-07T00:06:01;20.60;;;13.73;;
23384;SDS011;11865;45.394;10.978;2023-05-07T00:08:29;21.80;;;13.63;;
23384;SDS011;11865;45.394;10.978;2023-05-07T00:10:56;20.77;;;14.95;;
23384;SDS011;11865;45.394;10.978;2023-05-07T00:13:24;17.20;;;13.90;;
23384;SDS011;11865;45.394;10.978;2023-05-07T00:15:51;19.85;;;14.38;;
23384;SDS011;11865;45.394;10.978;2023-05-07T00:18:18;18.80;;;14.43;;
23384;SDS011;11865;45.394;10.978;2023-05-07T00:20:49;20.67;;;14.80;;
23384;SDS011;11865;45.394;10.978;2023-05-07T00:23:16;20.33;;;16.40;;
23384;SDS011;11865;45.394;10.978;2023-05-07T00:25:44;24.20;;;18.27;;
23384;SDS011;11865;45.394;10.978;2023-05-07T00:28:11;28.45;;;19.60;;
23384;SDS011;11865;45.394;10.978;2023-05-07T00:30:38;27.25;;;19.25;;
23384;SDS011;11865;45.394;10.978;2023-05-07T00:33:06;26.73;;;19.35;;
23384;SDS011;11865;45.394;10.978;2023-05-07T00:35:34;25.95;;;19.58;;
23384;SDS011;11865;45.394;10.978;2023-05-07T00:38:01;28.85;;;20.73;;
23384;SDS011;11865;45.394;10.978;2023-05-07T00:40:28;29.92;;;20.80;;
23384;SDS011;11865;45.394;10.978;2023-05-07T00:42:56;23.70;;;19.17;;
23384;SDS011;11865;45.394;10.978;2023-05-07T00:45:28;31.92;;;21.40;;
23384;SDS011;11865;45.394;10.978;2023-05-07T00:47:59;27.50;;;20.50;;
23384;SDS011;11865;45.394;10.978;2023-05-07T00:50:28;27.45;;;21.05;;
23384;SDS011;11865;45.394;10.978;2023-05-07T00:52:56;31.13;;;22.15;;
23384;SDS011;11865;45.394;10.978;2023-05-07T00:55:24;27.70;;;21.70;;
23384;SDS011;11865;45.394;10.978;2023-05-07T00:57:52;31.70;;;23.10;;
23384;SDS011;11865;45.394;10.978;2023-05-07T01:00:20;32.42;;;24.13;;
23384;SDS011;11865;45.394;10.978;2023-05-07T01:02:47;32.72;;;23.80;;
23384;SDS011;11865;45.394;10.978;2023-05-07T01:05:15;31.38;;;23.67;;
23384;SDS011;11865;45.394;10.978;2023-05-07T01:07:46;32.60;;;23.63;;
23384;SDS011;11865;45.394;10.978;2023-05-07T01:10:14;30.60;;;23.50;;
23384;SDS011;11865;45.394;10.978;2023-05-07T01:12:42;30.23;;;23.65;;
23384;SDS011;11865;45.394;10.978;2023-05-07T01:15:11;32.35;;;23.13;;
23384;SDS011;11865;45.394;10.978;2023-05-07T01:17:39;32.60;;;23.08;;
23384;SDS011;11865;45.394;10.978;2023-05-07T01:20:12;29.40;;;22.77;;
23384;SDS011;11865;45.394;10.978;2023-05-07T01:22:41;34.97;;;23.20;;
23384;SDS011;11865;45.394;10.978;2023-05-07T01:25:10;31.08;;;21.63;;
23384;SDS011;11865;45.394;10.978;2023-05-07T01:27:42;29.75;;;23.33;;
23384;SDS011;11865;45.394;10.978;2023-05-07T01:30:09;31.05;;;22.13;;
23384;SDS011;11865;45.394;10.978;2023-05-07T01:32:48;29.02;;;21.77;;
23384;SDS011;11865;45.394;10.978;2023-05-07T01:35:19;28.25;;;21.73;;
23384;SDS011;11865;45.394;10.978;2023-05-07T01:37:49;31.70;;;21.88;;
23384;SDS011;11865;45.394;10.978;2023-05-07T01:40:17;28.75;;;20.77;;
23384;SDS011;11865;45.394;10.978;2023-05-07T01:42:44;29.20;;;21.80;;
23384;SDS011;11865;45.394;10.978;2023-05-07T01:45:13;27.40;;;21.65;;
23384;SDS011;11865;45.394;10.978;2023-05-07T01:47:40;30.38;;;22.58;;
23384;SDS011;11865;45.394;10.978;2023-05-07T01:50:09;30.50;;;21.85;;
23384;SDS011;11865;45.394;10.978;2023-05-07T01:52:37;29.00;;;21.38;;
23384;SDS011;11865;45.394;10.978;2023-05-07T01:55:05;27.73;;;21.42;;
23384;SDS011;11865;45.394;10.978;2023-05-07T01:57:33;30.52;;;22.88;;
23384;SDS011;11865;45.394;10.978;2023-05-07T02:00:02;30.77;;;23.73;;
23384;SDS011;11865;45.394;10.978;2023-05-07T02:02:41;35.95;;;22.60;;
23384;SDS011;11865;45.394;10.978;2023-05-07T02:05:18;30.00;;;23.45;;
23384;SDS011;11865;45.394;10.978;2023-05-07T02:07:51;29.95;;;22.35;;
23384;SDS011;11865;45.394;10.978;2023-05-07T02:10:19;35.65;;;24.80;;
23384;SDS011;11865;45.394;10.978;2023-05-07T02:12:46;33.00;;;24.63;;
23384;SDS011;11865;45.394;10.978;2023-05-07T02:15:14;31.45;;;23.80;;
23384;SDS011;11865;45.394;10.978;2023-05-07T02:17:58;31.45;;;24.23;;
23384;SDS011;11865;45.394;10.978;2023-05-07T02:20:27;34.85;;;24.63;;
23384;SDS011;11865;45.394;10.978;2023-05-07T02:22:55;37.65;;;25.67;;
23384;SDS011;11865;45.394;10.978;2023-05-07T02:25:25;36.72;;;26.13;;
23384;SDS011;11865;45.394;10.978;2023-05-07T02:27:53;32.67;;;25.30;;
23384;SDS011;11865;45.394;10.978;2023-05-07T02:30:26;30.45;;;24.60;;
23384;SDS011;11865;45.394;10.978;2023-05-07T02:32:56;33.17;;;25.40;;
23384;SDS011;11865;45.394;10.978;2023-05-07T02:35:24;36.97;;;24.75;;
23384;SDS011;11865;45.394;10.978;2023-05-07T02:37:52;33.25;;;25.80;;
23384;SDS011;11865;45.394;10.978;2023-05-07T02:40:20;34.20;;;26.58;;
23384;SDS011;11865;45.394;10.978;2023-05-07T02:42:48;36.63;;;27.00;;
23384;SDS011;11865;45.394;10.978;2023-05-07T02:45:15;36.15;;;26.77;;
23384;SDS011;11865;45.394;10.978;2023-05-07T02:47:43;34.50;;;25.80;;
23384;SDS011;11865;45.394;10.978;2023-05-07T02:50:11;37.10;;;26.83;;
23384;SDS011;11865;45.394;10.978;2023-05-07T02:52:39;34.58;;;26.73;;
23384;SDS011;11865;45.394;10.978;2023-05-07T02:55:06;36.30;;;26.25;;
23384;SDS011;11865;45.394;10.978;2023-05-07T02:57:34;35.63;;;26.88;;
23384;SDS011;11865;45.394;10.978;2023-05-07T03:00:15;38.38;;;27.95;;
23384;SDS011;11865;45.394;10.978;2023-05-07T03:02:59;43.25;;;28.55;;
23384;SDS011;11865;45.394;10.978;2023-05-07T03:05:28;37.90;;;28.85;;
23384;SDS011;11865;45.394;10.978;2023-05-07T03:07:55;37.33;;;28.15;;
23384;SDS011;11865;45.394;10.978;2023-05-07T03:10:23;35.83;;;27.23;;
23384;SDS011;11865;45.394;10.978;2023-05-07T03:12:50;34.92;;;25.83;;
23384;SDS011;11865;45.394;10.978;2023-05-07T03:15:18;35.13;;;26.90;;
23384;SDS011;11865;45.394;10.978;2023-05-07T03:17:45;34.85;;;26.20;;
23384;SDS011;11865;45.394;10.978;2023-05-07T03:20:12;35.60;;;26.73;;
23384;SDS011;11865;45.394;10.978;2023-05-07T03:22:41;33.80;;;26.83;;
23384;SDS011;11865;45.394;10.978;2023-05-07T03:25:09;37.72;;;27.70;;
23384;SDS011;11865;45.394;10.978;2023-05-07T03:27:37;36.00;;;27.52;;
23384;SDS011;11865;45.394;10.978;2023-05-07T03:30:05;38.75;;;27.65;;
23384;SDS011;11865;45.394;10.978;2023-05-07T03:32:34;35.65;;;26.85;;
23384;SDS011;11865;45.394;10.978;2023-05-07T03:35:06;37.00;;;27.92;;
23384;SDS011;11865;45.394;10.978;2023-05-07T03:37:34;36.30;;;27.65;;
23384;SDS011;11865;45.394;10.978;2023-05-07T03:40:02;37.97;;;27.88;;
23384;SDS011;11865;45.394;10.978;2023-05-07T03:42:34;40.97;;;29.52;;
23384;SDS011;11865;45.394;10.978;2023-05-07T03:45:02;39.63;;;27.33;;
23384;SDS011;11865;45.394;10.978;2023-05-07T03:47:30;40.80;;;29.20;;
23384;SDS011;11865;45.394;10.978;2023-05-07T03:49:58;38.35;;;29.40;;
23384;SDS011;11865;45.394;10.978;2023-05-07T03:52:26;36.80;;;28.70;;
23384;SDS011;11865;45.394;10.978;2023-05-07T03:54:56;43.20;;;31.35;;
23384;SDS011;11865;45.394;10.978;2023-05-07T03:57:24;38.15;;;28.85;;
23384;SDS011;11865;45.394;10.978;2023-05-07T03:59:51;40.75;;;29.30;;
23384;SDS011;11865;45.394;10.978;2023-05-07T04:02:19;42.47;;;29.70;;
23384;SDS011;11865;45.394;10.978;2023-05-07T04:04:48;41.33;;;30.40;;
23384;SDS011;11865;45.394;10.978;2023-05-07T04:07:16;40.83;;;30.17;;
23384;SDS011;11865;45.394;10.978;2023-05-07T04:09:48;43.38;;;29.27;;
23384;SDS011;11865;45.394;10.978;2023-05-07T04:12:15;41.80;;;28.58;;
23384;SDS011;11865;45.394;10.978;2023-05-07T04:14:43;41.10;;;28.73;;
23384;SDS011;11865;45.394;10.978;2023-05-07T04:17:12;38.53;;;27.85;;
23384;SDS011;11865;45.394;10.978;2023-05-07T04:19:39;40.65;;;28.75;;
23384;SDS011;11865;45.394;10.978;2023-05-07T04:22:12;37.83;;;27.00;;
23384;SDS011;11865;45.394;10.978;2023-05-07T04:24:39;40.88;;;28.10;;
23384;SDS011;11865;45.394;10.978;2023-05-07T04:27:07;38.55;;;27.85;;
23384;SDS011;11865;45.394;10.978;2023-05-07T04:29:34;41.45;;;28.33;;
23384;SDS011;11865;45.394;10.978;2023-05-07T04:32:02;37.92;;;27.88;;
23384;SDS011;11865;45.394;10.978;2023-05-07T04:34:29;37.50;;;27.17;;
23384;SDS011;11865;45.394;10.978;2023-05-07T04:36:58;37.22;;;26.30;;
23384;SDS011;11865;45.394;10.978;2023-05-07T04:39:26;35.67;;;26.08;;
23384;SDS011;11865;45.394;10.978;2023-05-07T04:41:54;33.35;;;25.63;;
23384;SDS011;11865;45.394;10.978;2023-05-07T04:44:22;36.70;;;25.88;;
23384;SDS011;11865;45.394;10.978;2023-05-07T04:46:50;35.45;;;25.25;;
23384;SDS011;11865;45.394;10.978;2023-05-07T04:49:18;31.67;;;24.83;;
23384;SDS011;11865;45.394;10.978;2023-05-07T04:51:45;38.00;;;26.27;;
23384;SDS011;11865;45.394;10.978;2023-05-07T04:54:15;36.58;;;26.67;;
23384;SDS011;11865;45.394;10.978;2023-05-07T04:56:43;37.83;;;24.90;;
23384;SDS011;11865;45.394;10.978;2023-05-07T04:59:10;42.97;;;25.75;;
23384;SDS011;11865;45.394;10.978;2023-05-07T05:01:38;32.33;;;24.58;;
23384;SDS011;11865;45.394;10.978;2023-05-07T05:04:06;34.67;;;24.90;;
23384;SDS011;11865;45.394;10.978;2023-05-07T05:06:33;35.00;;;24.35;;
23384;SDS011;11865;45.394;10.978;2023-05-07T05:09:03;42.00;;;24.88;;
23384;SDS011;11865;45.394;10.978;2023-05-07T05:11:32;34.78;;;25.63;;
23384;SDS011;11865;45.394;10.978;2023-05-07T05:14:00;34.45;;;24.88;;
23384;SDS011;11865;45.394;10.978;2023-05-07T05:16:29;37.53;;;25.02;;
23384;SDS011;11865;45.394;10.978;2023-05-07T05:18:56;33.05;;;24.15;;
23384;SDS011;11865;45.394;10.978;2023-05-07T05:21:24;38.42;;;27.08;;
23384;SDS011;11865;45.394;10.978;2023-05-07T05:23:56;33.60;;;24.98;;
23384;SDS011;11865;45.394;10.978;2023-05-07T05:26:24;33.42;;;25.33;;
23384;SDS011;11865;45.394;10.978;2023-05-07T05:28:52;32.78;;;25.55;;
23384;SDS011;11865;45.394;10.978;2023-05-07T05:31:22;33.83;;;23.58;;
23384;SDS011;11865;45.394;10.978;2023-05-07T05:33:51;34.80;;;23.75;;
23384;SDS011;11865;45.394;10.978;2023-05-07T05:36:18;33.05;;;23.38;;
23384;SDS011;11865;45.394;10.978;2023-05-07T05:38:47;30.40;;;22.58;;
23384;SDS011;11865;45.394;10.978;2023-05-07T05:41:16;30.98;;;22.23;;
23384;SDS011;11865;45.394;10.978;2023-05-07T05:43:43;29.13;;;22.38;;
23384;SDS011;11865;45.394;10.978;2023-05-07T05:46:11;28.52;;;22.60;;
23384;SDS011;11865;45.394;10.978;2023-05-07T05:48:39;30.83;;;23.25;;
23384;SDS011;11865;45.394;10.978;2023-05-07T05:51:07;30.35;;;22.48;;
23384;SDS011;11865;45.394;10.978;2023-05-07T05:53:35;30.13;;;22.17;;
23384;SDS011;11865;45.394;10.978;2023-05-07T05:56:03;31.67;;;23.15;;
23384;SDS011;11865;45.394;10.978;2023-05-07T05:58:31;26.60;;;22.40;;
23384;SDS011;11865;45.394;10.978;2023-05-07T06:01:02;31.90;;;23.08;;
23384;SDS011;11865;45.394;10.978;2023-05-07T06:03:30;30.17;;;22.67;;
23384;SDS011;11865;45.394;10.978;2023-05-07T06:06:03;27.65;;;19.70;;
23384;SDS011;11865;45.394;10.978;2023-05-07T06:08:31;24.08;;;20.65;;
23384;SDS011;11865;45.394;10.978;2023-05-07T06:10:58;26.67;;;21.35;;
23384;SDS011;11865;45.394;10.978;2023-05-07T06:13:29;28.33;;;20.60;;
23384;SDS011;11865;45.394;10.978;2023-05-07T06:15:57;24.98;;;19.83;;
23384;SDS011;11865;45.394;10.978;2023-05-07T06:18:24;24.48;;;19.40;;
23384;SDS011;11865;45.394;10.978;2023-05-07T06:20:53;23.23;;;19.23;;
23384;SDS011;11865;45.394;10.978;2023-05-07T06:23:25;22.50;;;18.50;;
23384;SDS011;11865;45.394;10.978;2023-05-07T06:25:52;24.58;;;17.85;;
23384;SDS011;11865;45.394;10.978;2023-05-07T06:28:24;24.58;;;19.80;;
23384;SDS011;11865;45.394;10.978;2023-05-07T06:30:51;23.35;;;18.90;;
23384;SDS011;11865;45.394;10.978;2023-05-07T06:33:19;22.98;;;18.10;;
23384;SDS011;11865;45.394;10.978;2023-05-07T06:35:46;20.42;;;17.75;;
23384;SDS011;11865;45.394;10.978;2023-05-07T06:38:14;23.90;;;18.75;;
23384;SDS011;11865;45.394;10.978;2023-05-07T06:40:43;26.63;;;18.42;;
23384;SDS011;11865;45.394;10.978;2023-05-07T06:43:11;20.58;;;18.33;;
23384;SDS011;11865;45.394;10.978;2023-05-07T06:45:47;21.77;;;18.08;;
23384;SDS011;11865;45.394;10.978;2023-05-07T06:48:15;23.85;;;19.92;;
23384;SDS011;11865;45.394;10.978;2023-05-07T06:50:49;23.52;;;19.65;;
23384;SDS011;11865;45.394;10.978;2023-05-07T06:53:18;27.30;;;20.70;;
23384;SDS011;11865;45.394;10.978;2023-05-07T06:55:45;25.48;;;20.55;;
23384;SDS011;11865;45.394;10.978;2023-05-07T06:58:14;23.65;;;20.35;;
23384;SDS011;11865;45.394;10.978;2023-05-07T07:00:42;27.73;;;19.60;;
23384;SDS011;11865;45.394;10.978;2023-05-07T07:03:10;26.65;;;20.52;;
23384;SDS011;11865;45.394;10.978;2023-05-07T07:05:41;27.17;;;20.65;;
23384;SDS011;11865;45.394;10.978;2023-05-07T07:08:09;24.98;;;20.48;;
23384;SDS011;11865;45.394;10.978;2023-05-07T07:10:37;41.97;;;29.58;;
23384;SDS011;11865;45.394;10.978;2023-05-07T07:13:05;26.98;;;21.63;;
23384;SDS011;11865;45.394;10.978;2023-05-07T07:15:32;25.33;;;22.08;;
23384;SDS011;11865;45.394;10.978;2023-05-07T07:18:00;26.80;;;21.25;;
23384;SDS011;11865;45.394;10.978;2023-05-07T07:20:27;25.20;;;21.13;;
23384;SDS011;11865;45.394;10.978;2023-05-07T07:22:55;24.77;;;20.45;;
23384;SDS011;11865;45.394;10.978;2023-05-07T07:25:22;24.23;;;19.70;;
23384;SDS011;11865;45.394;10.978;2023-05-07T07:27:50;25.13;;;19.90;;
23384;SDS011;11865;45.394;10.978;2023-05-07T07:30:19;25.88;;;19.95;;
23384;SDS011;11865;45.394;10.978;2023-05-07T07:32:48;24.50;;;19.08;;
23384;SDS011;11865;45.394;10.978;2023-05-07T07:35:15;20.50;;;18.17;;
23384;SDS011;11865;45.394;10.978;2023-05-07T07:37:44;21.27;;;18.45;;
23384;SDS011;11865;45.394;10.978;2023-05-07T07:40:13;20.83;;;18.63;;
23384;SDS011;11865;45.394;10.978;2023-05-07T07:42:41;23.38;;;18.70;;
23384;SDS011;11865;45.394;10.978;2023-05-07T07:45:09;21.60;;;18.40;;
23384;SDS011;11865;45.394;10.978;2023-05-07T07:47:40;20.70;;;18.20;;
23384;SDS011;11865;45.394;10.978;2023-05-07T07:50:08;19.88;;;16.30;;
23384;SDS011;11865;45.394;10.978;2023-05-07T07:52:36;21.02;;;16.83;;
23384;SDS011;11865;45.394;10.978;2023-05-07T07:55:05;20.00;;;15.73;;
23384;SDS011;11865;45.394;10.978;2023-05-07T07:57:34;19.92;;;16.60;;
23384;SDS011;11865;45.394;10.978;2023-05-07T08:00:02;25.95;;;17.20;;
23384;SDS011;11865;45.394;10.978;2023-05-07T08:02:31;19.25;;;17.10;;
23384;SDS011;11865;45.394;10.978;2023-05-07T08:04:58;21.98;;;16.65;;
23384;SDS011;11865;45.394;10.978;2023-05-07T08:07:26;22.90;;;17.30;;
23384;SDS011;11865;45.394;10.978;2023-05-07T08:09:54;18.63;;;16.13;;
23384;SDS011;11865;45.394;10.978;2023-05-07T08:12:23;19.02;;;16.65;;
23384;SDS011;11865;45.394;10.978;2023-05-07T08:14:51;20.08;;;16.55;;
23384;SDS011;11865;45.394;10.978;2023-05-07T08:17:18;18.73;;;16.15;;
23384;SDS011;11865;45.394;10.978;2023-05-07T08:19:50;18.88;;;16.05;;
23384;SDS011;11865;45.394;10.978;2023-05-07T08:22:18;20.20;;;16.08;;
23384;SDS011;11865;45.394;10.978;2023-05-07T08:24:47;23.88;;;16.38;;
23384;SDS011;11865;45.394;10.978;2023-05-07T08:27:14;19.42;;;15.38;;
23384;SDS011;11865;45.394;10.978;2023-05-07T08:29:42;16.92;;;14.75;;
23384;SDS011;11865;45.394;10.978;2023-05-07T08:32:15;17.65;;;14.50;;
23384;SDS011;11865;45.394;10.978;2023-05-07T08:34:42;16.95;;;14.18;;
23384;SDS011;11865;45.394;10.978;2023-05-07T08:37:10;18.48;;;15.00;;
23384;SDS011;11865;45.394;10.978;2023-05-07T08:39:37;19.95;;;14.98;;
23384;SDS011;11865;45.394;10.978;2023-05-07T08:42:10;18.02;;;14.90;;
23384;SDS011;11865;45.394;10.978;2023-05-07T08:44:39;25.20;;;18.40;;
23384;SDS011;11865;45.394;10.978;2023-05-07T08:47:09;22.65;;;17.80;;
23384;SDS011;11865;45.394;10.978;2023-05-07T08:49:37;21.00;;;17.70;;
23384;SDS011;11865;45.394;10.978;2023-05-07T08:52:06;19.65;;;15.82;;
23384;SDS011;11865;45.394;10.978;2023-05-07T08:54:36;18.80;;;16.05;;
23384;SDS011;11865;45.394;10.978;2023-05-07T08:57:07;16.92;;;14.32;;
23384;SDS011;11865;45.394;10.978;2023-05-07T08:59:35;15.85;;;12.57;;
23384;SDS011;11865;45.394;10.978;2023-05-07T09:02:05;15.73;;;11.98;;
23384;SDS011;11865;45.394;10.978;2023-05-07T09:04:36;19.50;;;13.35;;
23384;SDS011;11865;45.394;10.978;2023-05-07T09:07:04;19.38;;;13.02;;
23384;SDS011;11865;45.394;10.978;2023-05-07T09:09:35;15.07;;;12.25;;
23384;SDS011;11865;45.394;10.978;2023-05-07T09:12:04;19.75;;;14.52;;
23384;SDS011;11865;45.394;10.978;2023-05-07T09:14:33;18.33;;;14.07;;
23384;SDS011;11865;45.394;10.978;2023-05-07T09:17:02;17.02;;;14.77;;
23384;SDS011;11865;45.394;10.978;2023-05-07T09:19:30;16.35;;;14.07;;
23384;SDS011;11865;45.394;10.978;2023-05-07T09:22:01;16.80;;;13.63;;
23384;SDS011;11865;45.394;10.978;2023-05-07T09:24:39;18.33;;;13.35;;
23384;SDS011;11865;45.394;10.978;2023-05-07T09:27:09;16.60;;;13.48;;
23384;SDS011;11865;45.394;10.978;2023-05-07T09:29:42;16.02;;;13.80;;
23384;SDS011;11865;45.394;10.978;2023-05-07T09:32:11;18.70;;;14.73;;
23384;SDS011;11865;45.394;10.978;2023-05-07T09:34:40;20.95;;;15.68;;
23384;SDS011;11865;45.394;10.978;2023-05-07T09:37:09;23.13;;;16.38;;
23384;SDS011;11865;45.394;10.978;2023-05-07T09:39:43;26.38;;;15.20;;
23384;SDS011;11865;45.394;10.978;2023-05-07T09:42:13;20.83;;;14.75;;
23384;SDS011;11865;45.394;10.978;2023-05-07T09:44:45;17.27;;;14.20;;
23384;SDS011;11865;45.394;10.978;2023-05-07T09:47:19;21.10;;;17.40;;
23384;SDS011;11865;45.394;10.978;2023-05-07T09:49:52;20.83;;;15.55;;
23384;SDS011;11865;45.394;10.978;2023-05-07T09:52:24;17.20;;;15.20;;
23384;SDS011;11865;45.394;10.978;2023-05-07T09:54:56;20.92;;;14.98;;
23384;SDS011;11865;45.394;10.978;2023-05-07T09:57:27;17.58;;;13.98;;
23384;SDS011;11865;45.394;10.978;2023-05-07T10:00:01;16.42;;;14.27;;
23384;SDS011;11865;45.394;10.978;2023-05-07T10:02:46;18.95;;;14.25;;
23384;SDS011;11865;45.394;10.978;2023-05-07T10:05:26;21.63;;;13.90;;
23384;SDS011;11865;45.394;10.978;2023-05-07T10:07:57;18.05;;;13.88;;
23384;SDS011;11865;45.394;10.978;2023-05-07T10:10:25;15.93;;;13.00;;
23384;SDS011;11865;45.394;10.978;2023-05-07T10:12:55;13.25;;;11.75;;
23384;SDS011;11865;45.394;10.978;2023-05-07T10:15:29;15.73;;;12.20;;
23384;SDS011;11865;45.394;10.978;2023-05-07T10:17:59;17.33;;;14.07;;
23384;SDS011;11865;45.394;10.978;2023-05-07T10:20:27;17.77;;;13.25;;
23384;SDS011;11865;45.394;10.978;2023-05-07T10:22:55;14.05;;;11.85;;
23384;SDS011;11865;45.394;10.978;2023-05-07T10:25:32;15.50;;;13.05;;
23384;SDS011;11865;45.394;10.978;2023-05-07T10:28:07;20.63;;;12.88;;
23384;SDS011;11865;45.394;10.978;2023-05-07T10:31:17;16.67;;;13.73;;
23384;SDS011;11865;45.394;10.978;2023-05-07T10:33:44;19.25;;;13.45;;
23384;SDS011;11865;45.394;10.978;2023-05-07T10:36:14;16.13;;;13.07;;
23384;SDS011;11865;45.394;10.978;2023-05-07T10:38:43;16.80;;;12.38;;
23384;SDS011;11865;45.394;10.978;2023-05-07T10:41:11;14.27;;;11.73;;
23384;SDS011;11865;45.394;10.978;2023-05-07T10:43:42;15.40;;;12.00;;
23384;SDS011;11865;45.394;10.978;2023-05-07T10:46:22;16.92;;;12.90;;
23384;SDS011;11865;45.394;10.978;2023-05-07T10:49:07;15.48;;;13.80;;
23384;SDS011;11865;45.394;10.978;2023-05-07T10:51:44;17.73;;;13.93;;
23384;SDS011;11865;45.394;10.978;2023-05-07T10:54:22;12.35;;;10.38;;
23384;SDS011;11865;45.394;10.978;2023-05-07T10:57:32;15.95;;;11.70;;
23384;SDS011;11865;45.394;10.978;2023-05-07T11:03:08;16.88;;;12.40;;
23384;SDS011;11865;45.394;10.978;2023-05-07T11:06:15;13.18;;;11.45;;
23384;SDS011;11865;45.394;10.978;2023-05-07T11:08:54;14.10;;;11.13;;
23384;SDS011;11865;45.394;10.978;2023-05-07T11:11:51;12.73;;;11.32;;
23384;SDS011;11865;45.394;10.978;2023-05-07T11:17:19;14.90;;;11.40;;
23384;SDS011;11865;45.394;10.978;2023-05-07T11:19:55;13.18;;;10.15;;
23384;SDS011;11865;45.394;10.978;2023-05-07T11:22:38;21.48;;;16.25;;
23384;SDS011;11865;45.394;10.978;2023-05-07T11:25:17;33.45;;;29.27;;
23384;SDS011;11865;45.394;10.978;2023-05-07T11:27:51;14.40;;;11.57;;
23384;SDS011;11865;45.394;10.978;2023-05-07T11:30:19;15.18;;;11.75;;
23384;SDS011;11865;45.394;10.978;2023-05-07T11:32:47;12.70;;;9.82;;
23384;SDS011;11865;45.394;10.978;2023-05-07T11:35:16;12.77;;;10.05;;
23384;SDS011;11865;45.394;10.978;2023-05-07T11:37:47;14.45;;;11.25;;
23384;SDS011;11865;45.394;10.978;2023-05-07T11:40:15;12.23;;;10.05;;
23384;SDS011;11865;45.394;10.978;2023-05-07T11:42:43;13.18;;;10.25;;
23384;SDS011;11865;45.394;10.978;2023-05-07T11:45:10;14.98;;;10.25;;
23384;SDS011;11865;45.394;10.978;2023-05-07T11:47:38;13.32;;;9.65;;
23384;SDS011;11865;45.394;10.978;2023-05-07T11:50:10;13.82;;;9.90;;
23384;SDS011;11865;45.394;10.978;2023-05-07T11:52:37;10.70;;;9.35;;
23384;SDS011;11865;45.394;10.978;2023-05-07T11:55:06;12.30;;;11.02;;
23384;SDS011;11865;45.394;10.978;2023-05-07T11:57:35;10.02;;;8.88;;
23384;SDS011;11865;45.394;10.978;2023-05-07T12:00:02;11.00;;;8.77;;
23384;SDS011;11865;45.394;10.978;2023-05-07T12:02:40;13.30;;;8.63;;
23384;SDS011;11865;45.394;10.978;2023-05-07T12:05:09;12.77;;;9.18;;
23384;SDS011;11865;45.394;10.978;2023-05-07T12:07:36;11.93;;;10.00;;
23384;SDS011;11865;45.394;10.978;2023-05-07T12:10:05;13.65;;;10.82;;
23384;SDS011;11865;45.394;10.978;2023-05-07T12:12:39;9.70;;;7.68;;
23384;SDS011;11865;45.394;10.978;2023-05-07T12:15:09;9.25;;;8.10;;
23384;SDS011;11865;45.394;10.978;2023-05-07T12:17:37;9.48;;;7.45;;
23384;SDS011;11865;45.394;10.978;2023-05-07T12:20:05;10.55;;;8.00;;
23384;SDS011;11865;45.394;10.978;2023-05-07T12:22:33;9.07;;;7.28;;
23384;SDS011;11865;45.394;10.978;2023-05-07T12:25:01;13.52;;;8.35;;
23384;SDS011;11865;45.394;10.978;2023-05-07T12:27:29;9.80;;;7.25;;
23384;SDS011;11865;45.394;10.978;2023-05-07T12:29:57;8.93;;;7.55;;
23384;SDS011;11865;45.394;10.978;2023-05-07T12:32:26;10.20;;;8.60;;
23384;SDS011;11865;45.394;10.978;2023-05-07T12:34:53;9.70;;;7.60;;
23384;SDS011;11865;45.394;10.978;2023-05-07T12:37:24;9.82;;;7.88;;
23384;SDS011;11865;45.394;10.978;2023-05-07T12:40:04;9.30;;;7.70;;
23384;SDS011;11865;45.394;10.978;2023-05-07T12:42:37;9.80;;;7.50;;
23384;SDS011;11865;45.394;10.978;2023-05-07T12:45:13;9.80;;;7.15;;
23384;SDS011;11865;45.394;10.978;2023-05-07T12:47:47;9.80;;;6.85;;
23384;SDS011;11865;45.394;10.978;2023-05-07T12:50:15;11.73;;;7.68;;
23384;SDS011;11865;45.394;10.978;2023-05-07T12:52:43;10.40;;;7.93;;
23384;SDS011;11865;45.394;10.978;2023-05-07T12:55:13;10.35;;;7.55;;
23384;SDS011;11865;45.394;10.978;2023-05-07T12:57:42;9.38;;;6.30;;
23384;SDS011;11865;45.394;10.978;2023-05-07T13:00:15;9.00;;;6.88;;
23384;SDS011;11865;45.394;10.978;2023-05-07T13:02:43;7.53;;;6.55;;
23384;SDS011;11865;45.394;10.978;2023-05-07T13:05:12;8.30;;;6.53;;
23384;SDS011;11865;45.394;10.978;2023-05-07T13:07:40;8.55;;;6.90;;
23384;SDS011;11865;45.394;10.978;2023-05-07T13:10:18;6.70;;;6.03;;
23384;SDS011;11865;45.394;10.978;2023-05-07T13:12:46;10.52;;;6.50;;
23384;SDS011;11865;45.394;10.978;2023-05-07T13:15:13;12.15;;;7.45;;
23384;SDS011;11865;45.394;10.978;2023-05-07T13:17:41;10.80;;;7.82;;
23384;SDS011;11865;45.394;10.978;2023-05-07T13:20:09;8.75;;;7.32;;
23384;SDS011;11865;45.394;10.978;2023-05-07T13:22:38;8.85;;;6.30;;
23384;SDS011;11865;45.394;10.978;2023-05-07T13:25:06;9.23;;;6.90;;
23384;SDS011;11865;45.394;10.978;2023-05-07T13:27:34;8.45;;;6.63;;
23384;SDS011;11865;45.394;10.978;2023-05-07T13:30:04;12.88;;;8.25;;
23384;SDS011;11865;45.394;10.978;2023-05-07T13:32:32;7.72;;;6.55;;
23384;SDS011;11865;45.394;10.978;2023-05-07T13:34:59;9.55;;;6.82;;
23384;SDS011;11865;45.394;10.978;2023-05-07T13:37:27;9.55;;;6.93;;
23384;SDS011;11865;45.394;10.978;2023-05-07T13:39:55;9.25;;;6.93;;
23384;SDS011;11865;45.394;10.978;2023-05-07T13:42:22;9.10;;;7.60;;
23384;SDS011;11865;45.394;10.978;2023-05-07T13:44:49;7.45;;;6.65;;
23384;SDS011;11865;45.394;10.978;2023-05-07T13:47:17;8.70;;;6.47;;
23384;SDS011;11865;45.394;10.978;2023-05-07T13:49:45;9.13;;;6.63;;
23384;SDS011;11865;45.394;10.978;2023-05-07T13:52:12;10.15;;;6.50;;
23384;SDS011;11865;45.394;10.978;2023-05-07T13:54:39;9.10;;;7.00;;
23384;SDS011;11865;45.394;10.978;2023-05-07T13:57:07;9.35;;;7.18;;
23384;SDS011;11865;45.394;10.978;2023-05-07T13:59:34;10.77;;;6.88;;
23384;SDS011;11865;45.394;10.978;2023-05-07T14:02:02;7.65;;;6.55;;
23384;SDS011;11865;45.394;10.978;2023-05-07T14:04:30;10.65;;;7.47;;
23384;SDS011;11865;45.394;10.978;2023-05-07T14:06:57;9.85;;;8.02;;
23384;SDS011;11865;45.394;10.978;2023-05-07T14:09:25;13.48;;;9.07;;
23384;SDS011;11865;45.394;10.978;2023-05-07T14:11:52;10.40;;;7.65;;
23384;SDS011;11865;45.394;10.978;2023-05-07T14:14:20;10.35;;;7.80;;
23384;SDS011;11865;45.394;10.978;2023-05-07T14:16:47;10.88;;;8.13;;
23384;SDS011;11865;45.394;10.978;2023-05-07T14:19:16;10.20;;;7.50;;
23384;SDS011;11865;45.394;10.978;2023-05-07T14:21:44;13.05;;;7.88;;
23384;SDS011;11865;45.394;10.978;2023-05-07T14:24:11;9.70;;;6.85;;
23384;SDS011;11865;45.394;10.978;2023-05-07T14:26:39;11.27;;;7.93;;
23384;SDS011;11865;45.394;10.978;2023-05-07T14:29:06;9.90;;;8.07;;
23384;SDS011;11865;45.394;10.978;2023-05-07T14:31:34;12.18;;;8.25;;
23384;SDS011;11865;45.394;10.978;2023-05-07T14:34:01;11.25;;;8.55;;